sensor_id;sensor_type;location;lat;lon;timestamp;temperature;humidity
48728;DHT22;34527;45.618;5.130;2023-11-19T00:02:20;7.20;99.90
48728;DHT22;34527;45.618;5.130;2023-11-19T00:04:47;7.20;99.90
48728;DHT22;34527;45.618;5.130;2023-11-19T00:07:13;7.20;99.90
48728;DHT22;34527;45.618;5.130;2023-11-19T00:09:39;7.20;99.90
48728;DHT22;34527;45.618;5.130;2023-11-19T00:12:06;7.10;99.90
48728;DHT22;34527;45.618;5.130;2023-11-19T00:14:33;7.10;99.90
48728;DHT22;34527;45.618;5.130;2023-11-19T00:16:59;7.10;99.90
48728;DHT22;34527;45.618;5.130;2023-11-19T00:19:25;7.00;99.90
48728;DHT22;34527;45.618;5.130;2023-11-19T00:21:51;7.00;99.90
48728;DHT22;34527;45.618;5.130;2023-11-19T00:24:17;7.10;99.90
48728;DHT22;34527;45.618;5.130;2023-11-19T00:26:43;7.00;99.90
48728;DHT22;34527;45.618;5.130;2023-11-19T00:29:09;6.90;99.90
48728;DHT22;34527;45.618;5.130;2023-11-19T00:31:36;6.90;99.90
48728;DHT22;34527;45.618;5.130;2023-11-19T00:34:02;6.90;99.90
48728;DHT22;34527;45.618;5.130;2023-11-19T00:36:28;6.90;99.90
48728;DHT22;34527;45.618;5.130;2023-11-19T00:38:54;6.90;99.90
48728;DHT22;34527;45.618;5.130;2023-11-19T00:41:20;6.90;99.90
48728;DHT22;34527;45.618;5.130;2023-11-19T00:43:46;6.90;99.90
48728;DHT22;34527;45.618;5.130;2023-11-19T00:46:12;6.90;99.90
48728;DHT22;34527;45.618;5.130;2023-11-19T00:48:39;6.90;99.90
48728;DHT22;34527;45.618;5.130;2023-11-19T00:51:05;6.90;99.90
48728;DHT22;34527;45.618;5.130;2023-11-19T00:53:30;6.90;99.90
48728;DHT22;34527;45.618;5.130;2023-11-19T00:55:57;6.90;99.90
48728;DHT22;34527;45.618;5.130;2023-11-19T00:58:23;6.90;99.90
48728;DHT22;34527;45.618;5.130;2023-11-19T01:00:49;6.90;99.90
48728;DHT22;34527;45.618;5.130;2023-11-19T01:03:14;6.90;99.90
48728;DHT22;34527;45.618;5.130;2023-11-19T01:05:41;6.90;99.90
48728;DHT22;34527;45.618;5.130;2023-11-19T01:08:07;6.80;99.90
48728;DHT22;34527;45.618;5.130;2023-11-19T01:10:33;6.80;99.90
48728;DHT22;34527;45.618;5.130;2023-11-19T01:12:59;6.80;99.90
48728;DHT22;34527;45.618;5.130;2023-11-19T01:15:25;6.70;99.90
48728;DHT22;34527;45.618;5.130;2023-11-19T01:17:51;6.80;99.90
48728;DHT22;34527;45.618;5.130;2023-11-19T01:20:17;6.90;99.90
48728;DHT22;34527;45.618;5.130;2023-11-19T01:22:42;6.90;99.90
48728;DHT22;34527;45.618;5.130;2023-11-19T01:25:08;6.90;99.90
48728;DHT22;34527;45.618;5.130;2023-11-19T01:27:34;7.00;99.90
48728;DHT22;34527;45.618;5.130;2023-11-19T01:30:01;7.00;99.90
48728;DHT22;34527;45.618;5.130;2023-11-19T01:32:29;7.00;99.90
48728;DHT22;34527;45.618;5.130;2023-11-19T01:34:54;7.10;99.90
48728;DHT22;34527;45.618;5.130;2023-11-19T01:37:20;7.20;99.90
48728;DHT22;34527;45.618;5.130;2023-11-19T01:39:46;7.10;99.90
48728;DHT22;34527;45.618;5.130;2023-11-19T01:42:11;7.00;99.90
48728;DHT22;34527;45.618;5.130;2023-11-19T01:44:37;7.20;99.90
48728;DHT22;34527;45.618;5.130;2023-11-19T01:47:03;7.20;99.90
48728;DHT22;34527;45.618;5.130;2023-11-19T01:49:31;7.20;99.90
48728;DHT22;34527;45.618;5.130;2023-11-19T01:51:58;7.30;99.90
48728;DHT22;34527;45.618;5.130;2023-11-19T01:54:24;7.30;99.90
48728;DHT22;34527;45.618;5.130;2023-11-19T01:56:50;7.30;99.90
48728;DHT22;34527;45.618;5.130;2023-11-19T01:59:18;7.40;99.90
48728;DHT22;34527;45.618;5.130;2023-11-19T02:01:44;7.40;99.90
48728;DHT22;34527;45.618;5.130;2023-11-19T02:04:10;7.40;99.90
48728;DHT22;34527;45.618;5.130;2023-11-19T02:06:40;7.40;99.90
48728;DHT22;34527;45.618;5.130;2023-11-19T02:09:07;7.50;99.90
48728;DHT22;34527;45.618;5.130;2023-11-19T02:11:34;7.50;99.90
48728;DHT22;34527;45.618;5.130;2023-11-19T02:14:00;7.50;99.90
48728;DHT22;34527;45.618;5.130;2023-11-19T02:16:26;7.60;99.90
48728;DHT22;34527;45.618;5.130;2023-11-19T02:18:51;7.70;99.90
48728;DHT22;34527;45.618;5.130;2023-11-19T02:21:17;7.70;99.90
48728;DHT22;34527;45.618;5.130;2023-11-19T02:23:43;7.60;99.90
48728;DHT22;34527;45.618;5.130;2023-11-19T02:26:13;7.70;99.90
48728;DHT22;34527;45.618;5.130;2023-11-19T02:28:41;7.70;99.90
48728;DHT22;34527;45.618;5.130;2023-11-19T02:31:08;7.80;99.90
48728;DHT22;34527;45.618;5.130;2023-11-19T02:33:39;7.80;99.90
48728;DHT22;34527;45.618;5.130;2023-11-19T02:36:06;7.90;99.90
48728;DHT22;34527;45.618;5.130;2023-11-19T02:38:33;7.90;99.90
48728;DHT22;34527;45.618;5.130;2023-11-19T02:40:59;7.90;99.90
48728;DHT22;34527;45.618;5.130;2023-11-19T02:43:27;8.00;99.90
48728;DHT22;34527;45.618;5.130;2023-11-19T02:45:53;8.00;99.90
48728;DHT22;34527;45.618;5.130;2023-11-19T02:48:21;7.90;99.90
48728;DHT22;34527;45.618;5.130;2023-11-19T02:50:46;8.00;99.90
48728;DHT22;34527;45.618;5.130;2023-11-19T02:53:13;8.10;99.90
48728;DHT22;34527;45.618;5.130;2023-11-19T02:55:39;8.10;99.90
48728;DHT22;34527;45.618;5.130;2023-11-19T02:58:06;8.10;99.90
48728;DHT22;34527;45.618;5.130;2023-11-19T03:00:39;8.00;99.90
48728;DHT22;34527;45.618;5.130;2023-11-19T03:03:13;8.10;99.90
48728;DHT22;34527;45.618;5.130;2023-11-19T03:05:48;8.20;99.90
48728;DHT22;34527;45.618;5.130;2023-11-19T03:08:15;8.20;99.90
48728;DHT22;34527;45.618;5.130;2023-11-19T03:10:41;8.20;99.90
48728;DHT22;34527;45.618;5.130;2023-11-19T03:13:11;8.30;99.90
48728;DHT22;34527;45.618;5.130;2023-11-19T03:15:38;8.30;99.90
48728;DHT22;34527;45.618;5.130;2023-11-19T03:18:04;8.30;99.90
48728;DHT22;34527;45.618;5.130;2023-11-19T03:20:29;8.30;99.90
48728;DHT22;34527;45.618;5.130;2023-11-19T03:22:55;8.40;99.90
48728;DHT22;34527;45.618;5.130;2023-11-19T03:25:25;8.40;99.90
48728;DHT22;34527;45.618;5.130;2023-11-19T03:27:51;8.40;99.90
48728;DHT22;34527;45.618;5.130;2023-11-19T03:30:16;8.40;99.90
48728;DHT22;34527;45.618;5.130;2023-11-19T03:32:43;8.50;99.90
48728;DHT22;34527;45.618;5.130;2023-11-19T03:35:08;8.40;99.90
48728;DHT22;34527;45.618;5.130;2023-11-19T03:37:34;8.50;99.90
48728;DHT22;34527;45.618;5.130;2023-11-19T03:40:01;8.50;99.90
48728;DHT22;34527;45.618;5.130;2023-11-19T03:42:26;8.50;99.90
48728;DHT22;34527;45.618;5.130;2023-11-19T03:44:53;8.50;99.90
48728;DHT22;34527;45.618;5.130;2023-11-19T03:47:19;8.50;99.90
48728;DHT22;34527;45.618;5.130;2023-11-19T03:49:48;8.50;99.90
48728;DHT22;34527;45.618;5.130;2023-11-19T03:52:14;8.50;99.90
48728;DHT22;34527;45.618;5.130;2023-11-19T03:54:40;8.60;99.90
48728;DHT22;34527;45.618;5.130;2023-11-19T03:57:05;8.60;99.90
48728;DHT22;34527;45.618;5.130;2023-11-19T03:59:31;8.60;99.90
48728;DHT22;34527;45.618;5.130;2023-11-19T04:01:57;8.60;99.90
48728;DHT22;34527;45.618;5.130;2023-11-19T04:04:26;8.60;99.90
48728;DHT22;34527;45.618;5.130;2023-11-19T04:06:52;8.70;99.90
48728;DHT22;34527;45.618;5.130;2023-11-19T04:09:18;8.70;99.90
48728;DHT22;34527;45.618;5.130;2023-11-19T04:11:43;8.70;99.90
48728;DHT22;34527;45.618;5.130;2023-11-19T04:14:14;8.70;99.90
48728;DHT22;34527;45.618;5.130;2023-11-19T04:16:40;8.70;99.90
48728;DHT22;34527;45.618;5.130;2023-11-19T04:19:06;8.60;99.90
48728;DHT22;34527;45.618;5.130;2023-11-19T04:21:32;8.70;99.90
48728;DHT22;34527;45.618;5.130;2023-11-19T04:23:58;8.80;99.90
48728;DHT22;34527;45.618;5.130;2023-11-19T04:26:24;8.80;99.90
48728;DHT22;34527;45.618;5.130;2023-11-19T04:28:49;8.70;99.90
48728;DHT22;34527;45.618;5.130;2023-11-19T04:31:15;8.70;99.90
48728;DHT22;34527;45.618;5.130;2023-11-19T04:33:42;8.70;99.90
48728;DHT22;34527;45.618;5.130;2023-11-19T04:36:09;8.70;99.90
48728;DHT22;34527;45.618;5.130;2023-11-19T04:38:34;8.60;99.90
48728;DHT22;34527;45.618;5.130;2023-11-19T04:41:00;8.60;99.90
48728;DHT22;34527;45.618;5.130;2023-11-19T04:43:26;8.70;99.90
48728;DHT22;34527;45.618;5.130;2023-11-19T04:45:51;8.60;99.90
48728;DHT22;34527;45.618;5.130;2023-11-19T04:48:17;8.70;99.90
48728;DHT22;34527;45.618;5.130;2023-11-19T04:50:43;8.70;99.90
48728;DHT22;34527;45.618;5.130;2023-11-19T04:53:08;8.60;99.90
48728;DHT22;34527;45.618;5.130;2023-11-19T04:55:34;8.70;99.90
48728;DHT22;34527;45.618;5.130;2023-11-19T04:57:59;8.70;99.90
48728;DHT22;34527;45.618;5.130;2023-11-19T05:00:25;8.70;99.90
48728;DHT22;34527;45.618;5.130;2023-11-19T05:02:51;8.70;99.90
48728;DHT22;34527;45.618;5.130;2023-11-19T05:05:16;8.70;99.90
48728;DHT22;34527;45.618;5.130;2023-11-19T05:07:43;8.60;99.90
48728;DHT22;34527;45.618;5.130;2023-11-19T05:10:08;8.70;99.90
48728;DHT22;34527;45.618;5.130;2023-11-19T05:12:34;8.60;99.90
48728;DHT22;34527;45.618;5.130;2023-11-19T05:15:00;8.60;99.90
48728;DHT22;34527;45.618;5.130;2023-11-19T05:17:26;8.70;99.90
48728;DHT22;34527;45.618;5.130;2023-11-19T05:19:51;8.70;99.90
48728;DHT22;34527;45.618;5.130;2023-11-19T05:22:17;8.70;99.90
48728;DHT22;34527;45.618;5.130;2023-11-19T05:24:43;8.70;99.90
48728;DHT22;34527;45.618;5.130;2023-11-19T05:27:08;8.70;99.90
48728;DHT22;34527;45.618;5.130;2023-11-19T05:29:37;8.70;99.90
48728;DHT22;34527;45.618;5.130;2023-11-19T05:32:05;8.60;99.90
48728;DHT22;34527;45.618;5.130;2023-11-19T05:34:30;8.70;99.90
48728;DHT22;34527;45.618;5.130;2023-11-19T05:36:56;8.70;99.90
48728;DHT22;34527;45.618;5.130;2023-11-19T05:39:22;8.70;99.90
48728;DHT22;34527;45.618;5.130;2023-11-19T05:41:48;8.60;99.90
48728;DHT22;34527;45.618;5.130;2023-11-19T05:44:14;8.60;99.90
48728;DHT22;34527;45.618;5.130;2023-11-19T05:46:39;8.60;99.90
48728;DHT22;34527;45.618;5.130;2023-11-19T05:49:08;8.60;99.90
48728;DHT22;34527;45.618;5.130;2023-11-19T05:51:37;8.60;99.90
48728;DHT22;34527;45.618;5.130;2023-11-19T05:54:04;8.60;99.90
48728;DHT22;34527;45.618;5.130;2023-11-19T05:56:32;8.60;99.90
48728;DHT22;34527;45.618;5.130;2023-11-19T05:58:58;8.50;99.90
48728;DHT22;34527;45.618;5.130;2023-11-19T06:01:26;8.50;99.90
48728;DHT22;34527;45.618;5.130;2023-11-19T06:03:52;8.40;99.90
48728;DHT22;34527;45.618;5.130;2023-11-19T06:06:18;8.40;99.90
48728;DHT22;34527;45.618;5.130;2023-11-19T06:08:44;8.30;99.90
48728;DHT22;34527;45.618;5.130;2023-11-19T06:11:10;8.30;99.90
48728;DHT22;34527;45.618;5.130;2023-11-19T06:13:40;8.30;99.90
48728;DHT22;34527;45.618;5.130;2023-11-19T06:16:06;8.20;99.90
48728;DHT22;34527;45.618;5.130;2023-11-19T06:18:32;8.10;99.90
48728;DHT22;34527;45.618;5.130;2023-11-19T06:20:57;8.10;99.90
48728;DHT22;34527;45.618;5.130;2023-11-19T06:23:23;8.10;99.90
48728;DHT22;34527;45.618;5.130;2023-11-19T06:25:49;8.10;99.90
48728;DHT22;34527;45.618;5.130;2023-11-19T06:28:14;8.00;99.90
48728;DHT22;34527;45.618;5.130;2023-11-19T06:30:40;8.00;99.90
48728;DHT22;34527;45.618;5.130;2023-11-19T06:33:06;8.00;99.90
48728;DHT22;34527;45.618;5.130;2023-11-19T06:35:32;7.90;99.90
48728;DHT22;34527;45.618;5.130;2023-11-19T06:38:02;7.90;99.90
48728;DHT22;34527;45.618;5.130;2023-11-19T06:40:33;7.90;99.90
48728;DHT22;34527;45.618;5.130;2023-11-19T06:42:58;7.80;99.90
48728;DHT22;34527;45.618;5.130;2023-11-19T06:45:24;7.70;99.90
48728;DHT22;34527;45.618;5.130;2023-11-19T06:47:50;7.60;99.90
48728;DHT22;34527;45.618;5.130;2023-11-19T06:50:15;7.60;99.90
48728;DHT22;34527;45.618;5.130;2023-11-19T06:52:41;7.60;99.90
48728;DHT22;34527;45.618;5.130;2023-11-19T06:55:07;7.50;99.90
48728;DHT22;34527;45.618;5.130;2023-11-19T06:57:33;7.40;99.90
48728;DHT22;34527;45.618;5.130;2023-11-19T06:59:59;7.40;99.90
48728;DHT22;34527;45.618;5.130;2023-11-19T07:02:24;7.40;99.90
48728;DHT22;34527;45.618;5.130;2023-11-19T07:04:51;7.50;99.90
48728;DHT22;34527;45.618;5.130;2023-11-19T07:07:16;7.50;99.90
48728;DHT22;34527;45.618;5.130;2023-11-19T07:09:42;7.50;99.90
48728;DHT22;34527;45.618;5.130;2023-11-19T07:12:08;7.50;99.90
48728;DHT22;34527;45.618;5.130;2023-11-19T07:14:34;7.50;99.90
48728;DHT22;34527;45.618;5.130;2023-11-19T07:17:00;7.50;99.90
48728;DHT22;34527;45.618;5.130;2023-11-19T07:19:26;7.50;99.90
48728;DHT22;34527;45.618;5.130;2023-11-19T07:21:51;7.50;99.90
48728;DHT22;34527;45.618;5.130;2023-11-19T07:24:18;7.50;99.90
48728;DHT22;34527;45.618;5.130;2023-11-19T07:26:45;7.60;99.90
48728;DHT22;34527;45.618;5.130;2023-11-19T07:29:11;7.70;99.90
48728;DHT22;34527;45.618;5.130;2023-11-19T07:31:36;7.70;99.90
48728;DHT22;34527;45.618;5.130;2023-11-19T07:34:02;7.80;99.90
48728;DHT22;34527;45.618;5.130;2023-11-19T07:36:28;7.90;99.90
48728;DHT22;34527;45.618;5.130;2023-11-19T07:38:54;8.00;99.90
48728;DHT22;34527;45.618;5.130;2023-11-19T07:41:23;8.20;99.90
48728;DHT22;34527;45.618;5.130;2023-11-19T07:43:48;8.30;99.90
48728;DHT22;34527;45.618;5.130;2023-11-19T07:46:16;8.50;99.90
48728;DHT22;34527;45.618;5.130;2023-11-19T07:48:41;8.50;99.90
48728;DHT22;34527;45.618;5.130;2023-11-19T07:51:08;8.60;99.90
48728;DHT22;34527;45.618;5.130;2023-11-19T07:53:33;8.60;99.90
48728;DHT22;34527;45.618;5.130;2023-11-19T07:56:00;8.70;99.90
48728;DHT22;34527;45.618;5.130;2023-11-19T07:58:25;8.70;99.90
48728;DHT22;34527;45.618;5.130;2023-11-19T08:00:51;8.70;99.90
48728;DHT22;34527;45.618;5.130;2023-11-19T08:03:17;8.80;99.90
48728;DHT22;34527;45.618;5.130;2023-11-19T08:05:44;8.90;99.90
48728;DHT22;34527;45.618;5.130;2023-11-19T08:08:10;8.90;99.90
48728;DHT22;34527;45.618;5.130;2023-11-19T08:10:35;8.90;99.90
48728;DHT22;34527;45.618;5.130;2023-11-19T08:13:01;9.00;99.90
48728;DHT22;34527;45.618;5.130;2023-11-19T08:15:27;9.00;99.90
48728;DHT22;34527;45.618;5.130;2023-11-19T08:17:52;9.10;99.90
48728;DHT22;34527;45.618;5.130;2023-11-19T08:20:18;9.10;99.90
48728;DHT22;34527;45.618;5.130;2023-11-19T08:22:44;9.30;99.90
48728;DHT22;34527;45.618;5.130;2023-11-19T08:25:10;9.50;99.90
48728;DHT22;34527;45.618;5.130;2023-11-19T08:27:35;9.70;99.90
48728;DHT22;34527;45.618;5.130;2023-11-19T08:30:01;9.90;99.90
48728;DHT22;34527;45.618;5.130;2023-11-19T08:32:27;10.20;99.90
48728;DHT22;34527;45.618;5.130;2023-11-19T08:34:53;10.40;99.90
48728;DHT22;34527;45.618;5.130;2023-11-19T08:37:19;10.60;99.90
48728;DHT22;34527;45.618;5.130;2023-11-19T08:39:50;10.70;99.90
48728;DHT22;34527;45.618;5.130;2023-11-19T08:42:19;10.80;99.90
48728;DHT22;34527;45.618;5.130;2023-11-19T08:44:49;10.80;99.90
48728;DHT22;34527;45.618;5.130;2023-11-19T08:47:16;10.80;99.90
48728;DHT22;34527;45.618;5.130;2023-11-19T08:49:44;10.90;99.90
48728;DHT22;34527;45.618;5.130;2023-11-19T08:52:09;11.00;99.90
48728;DHT22;34527;45.618;5.130;2023-11-19T08:54:42;11.10;99.90
48728;DHT22;34527;45.618;5.130;2023-11-19T08:57:07;11.10;99.90
48728;DHT22;34527;45.618;5.130;2023-11-19T08:59:34;11.00;99.90
48728;DHT22;34527;45.618;5.130;2023-11-19T09:01:59;11.10;99.90
48728;DHT22;34527;45.618;5.130;2023-11-19T09:04:25;11.10;99.90
48728;DHT22;34527;45.618;5.130;2023-11-19T09:06:51;11.20;99.90
48728;DHT22;34527;45.618;5.130;2023-11-19T09:09:16;11.30;99.90
48728;DHT22;34527;45.618;5.130;2023-11-19T09:11:42;11.50;99.90
48728;DHT22;34527;45.618;5.130;2023-11-19T09:14:08;11.60;99.90
48728;DHT22;34527;45.618;5.130;2023-11-19T09:16:33;11.70;99.90
48728;DHT22;34527;45.618;5.130;2023-11-19T09:18:59;11.80;99.90
48728;DHT22;34527;45.618;5.130;2023-11-19T09:21:26;11.90;99.90
48728;DHT22;34527;45.618;5.130;2023-11-19T09:23:51;12.10;99.90
48728;DHT22;34527;45.618;5.130;2023-11-19T09:26:19;12.20;99.90
48728;DHT22;34527;45.618;5.130;2023-11-19T09:28:44;12.30;99.90
48728;DHT22;34527;45.618;5.130;2023-11-19T09:31:17;12.40;99.90
48728;DHT22;34527;45.618;5.130;2023-11-19T09:33:43;12.50;99.90
48728;DHT22;34527;45.618;5.130;2023-11-19T09:36:09;12.60;99.90
48728;DHT22;34527;45.618;5.130;2023-11-19T09:38:37;12.70;99.90
48728;DHT22;34527;45.618;5.130;2023-11-19T09:41:06;12.70;99.90
48728;DHT22;34527;45.618;5.130;2023-11-19T09:43:40;12.70;99.90
48728;DHT22;34527;45.618;5.130;2023-11-19T09:46:06;12.80;99.90
48728;DHT22;34527;45.618;5.130;2023-11-19T09:48:33;12.70;99.90
48728;DHT22;34527;45.618;5.130;2023-11-19T09:51:01;12.70;99.90
48728;DHT22;34527;45.618;5.130;2023-11-19T09:53:27;12.70;99.90
48728;DHT22;34527;45.618;5.130;2023-11-19T09:55:53;12.70;99.90
48728;DHT22;34527;45.618;5.130;2023-11-19T09:58:19;12.60;99.90
48728;DHT22;34527;45.618;5.130;2023-11-19T10:00:44;12.60;99.90
48728;DHT22;34527;45.618;5.130;2023-11-19T10:03:11;12.60;99.90
48728;DHT22;34527;45.618;5.130;2023-11-19T10:05:38;12.70;99.90
48728;DHT22;34527;45.618;5.130;2023-11-19T10:08:05;12.80;99.90
48728;DHT22;34527;45.618;5.130;2023-11-19T10:10:31;12.80;99.90
48728;DHT22;34527;45.618;5.130;2023-11-19T10:12:56;12.80;99.90
48728;DHT22;34527;45.618;5.130;2023-11-19T10:15:24;12.80;99.90
48728;DHT22;34527;45.618;5.130;2023-11-19T10:17:51;12.90;99.90
48728;DHT22;34527;45.618;5.130;2023-11-19T10:20:17;12.90;99.90
48728;DHT22;34527;45.618;5.130;2023-11-19T10:22:43;12.90;99.90
48728;DHT22;34527;45.618;5.130;2023-11-19T10:25:25;13.00;99.90
48728;DHT22;34527;45.618;5.130;2023-11-19T10:27:51;12.90;99.90
48728;DHT22;34527;45.618;5.130;2023-11-19T10:30:25;13.00;99.90
48728;DHT22;34527;45.618;5.130;2023-11-19T10:33:11;12.90;99.90
48728;DHT22;34527;45.618;5.130;2023-11-19T10:35:55;13.10;99.90
48728;DHT22;34527;45.618;5.130;2023-11-19T10:38:22;13.10;99.90
48728;DHT22;34527;45.618;5.130;2023-11-19T10:40:49;13.20;99.90
48728;DHT22;34527;45.618;5.130;2023-11-19T10:43:16;13.30;99.90
48728;DHT22;34527;45.618;5.130;2023-11-19T10:45:42;13.40;99.90
48728;DHT22;34527;45.618;5.130;2023-11-19T10:48:08;13.50;99.90
48728;DHT22;34527;45.618;5.130;2023-11-19T10:50:34;13.40;99.90
48728;DHT22;34527;45.618;5.130;2023-11-19T10:53:02;13.30;99.90
48728;DHT22;34527;45.618;5.130;2023-11-19T10:55:33;13.40;99.90
48728;DHT22;34527;45.618;5.130;2023-11-19T10:58:10;13.40;99.90
48728;DHT22;34527;45.618;5.130;2023-11-19T11:00:45;13.40;99.90
48728;DHT22;34527;45.618;5.130;2023-11-19T11:03:20;13.40;99.90
48728;DHT22;34527;45.618;5.130;2023-11-19T11:05:49;13.50;99.90
48728;DHT22;34527;45.618;5.130;2023-11-19T11:08:16;13.60;99.90
48728;DHT22;34527;45.618;5.130;2023-11-19T11:10:44;13.60;99.90
48728;DHT22;34527;45.618;5.130;2023-11-19T11:13:11;13.70;99.90
48728;DHT22;34527;45.618;5.130;2023-11-19T11:15:37;13.80;99.90
48728;DHT22;34527;45.618;5.130;2023-11-19T11:18:04;13.90;99.90
48728;DHT22;34527;45.618;5.130;2023-11-19T11:20:34;13.90;99.90
48728;DHT22;34527;45.618;5.130;2023-11-19T11:26:19;13.90;99.90
48728;DHT22;34527;45.618;5.130;2023-11-19T11:29:03;13.90;99.90
48728;DHT22;34527;45.618;5.130;2023-11-19T11:39:15;14.20;99.90
48728;DHT22;34527;45.618;5.130;2023-11-19T11:41:41;14.20;99.90
48728;DHT22;34527;45.618;5.130;2023-11-19T11:44:07;14.30;99.90
48728;DHT22;34527;45.618;5.130;2023-11-19T11:49:04;14.40;99.90
48728;DHT22;34527;45.618;5.130;2023-11-19T11:54:30;14.40;99.90
48728;DHT22;34527;45.618;5.130;2023-11-19T11:57:11;14.30;99.90
48728;DHT22;34527;45.618;5.130;2023-11-19T11:59:47;14.40;99.90
48728;DHT22;34527;45.618;5.130;2023-11-19T12:02:15;14.40;99.90
48728;DHT22;34527;45.618;5.130;2023-11-19T12:04:42;14.40;99.90
48728;DHT22;34527;45.618;5.130;2023-11-19T12:07:12;14.40;99.90
48728;DHT22;34527;45.618;5.130;2023-11-19T12:09:42;14.50;99.90
48728;DHT22;34527;45.618;5.130;2023-11-19T12:12:23;14.50;99.90
48728;DHT22;34527;45.618;5.130;2023-11-19T12:15:08;14.60;99.90
48728;DHT22;34527;45.618;5.130;2023-11-19T12:17:41;14.60;99.90
48728;DHT22;34527;45.618;5.130;2023-11-19T12:20:10;14.70;99.90
48728;DHT22;34527;45.618;5.130;2023-11-19T12:22:41;14.70;99.90
48728;DHT22;34527;45.618;5.130;2023-11-19T12:25:09;14.70;99.90
48728;DHT22;34527;45.618;5.130;2023-11-19T12:27:35;14.60;99.90
48728;DHT22;34527;45.618;5.130;2023-11-19T12:30:02;14.50;99.90
48728;DHT22;34527;45.618;5.130;2023-11-19T12:32:44;14.50;99.90
48728;DHT22;34527;45.618;5.130;2023-11-19T12:35:11;14.50;99.90
48728;DHT22;34527;45.618;5.130;2023-11-19T12:40:20;14.50;99.90
48728;DHT22;34527;45.618;5.130;2023-11-19T12:42:50;14.50;99.90
48728;DHT22;34527;45.618;5.130;2023-11-19T12:45:16;14.50;99.90
48728;DHT22;34527;45.618;5.130;2023-11-19T12:47:45;14.50;99.90
48728;DHT22;34527;45.618;5.130;2023-11-19T12:50:13;14.50;99.90
48728;DHT22;34527;45.618;5.130;2023-11-19T12:52:39;14.60;99.90
48728;DHT22;34527;45.618;5.130;2023-11-19T12:55:23;14.60;99.90
48728;DHT22;34527;45.618;5.130;2023-11-19T12:57:50;14.60;99.90
48728;DHT22;34527;45.618;5.130;2023-11-19T13:00:20;14.70;99.90
48728;DHT22;34527;45.618;5.130;2023-11-19T13:02:53;14.70;99.90
48728;DHT22;34527;45.618;5.130;2023-11-19T13:07:48;14.80;99.90
48728;DHT22;34527;45.618;5.130;2023-11-19T13:10:14;14.90;99.90
48728;DHT22;34527;45.618;5.130;2023-11-19T13:12:41;14.90;99.90
48728;DHT22;34527;45.618;5.130;2023-11-19T13:15:07;14.90;99.90
48728;DHT22;34527;45.618;5.130;2023-11-19T13:17:47;14.90;99.90
48728;DHT22;34527;45.618;5.130;2023-11-19T13:20:13;14.90;99.90
48728;DHT22;34527;45.618;5.130;2023-11-19T13:23:03;14.90;99.90
48728;DHT22;34527;45.618;5.130;2023-11-19T13:25:30;14.90;99.90
48728;DHT22;34527;45.618;5.130;2023-11-19T13:27:56;14.90;99.90
48728;DHT22;34527;45.618;5.130;2023-11-19T13:30:22;14.90;99.90
48728;DHT22;34527;45.618;5.130;2023-11-19T13:32:49;14.90;99.90
48728;DHT22;34527;45.618;5.130;2023-11-19T13:35:15;15.00;99.90
48728;DHT22;34527;45.618;5.130;2023-11-19T13:37:42;15.00;99.90
48728;DHT22;34527;45.618;5.130;2023-11-19T13:40:08;15.10;99.90
48728;DHT22;34527;45.618;5.130;2023-11-19T13:42:41;15.10;99.90
48728;DHT22;34527;45.618;5.130;2023-11-19T13:45:11;15.10;99.90
48728;DHT22;34527;45.618;5.130;2023-11-19T13:47:44;15.20;99.90
48728;DHT22;34527;45.618;5.130;2023-11-19T13:50:14;15.10;99.90
48728;DHT22;34527;45.618;5.130;2023-11-19T13:52:41;15.10;99.90
48728;DHT22;34527;45.618;5.130;2023-11-19T13:55:08;15.10;99.90
48728;DHT22;34527;45.618;5.130;2023-11-19T13:57:35;15.00;99.90
48728;DHT22;34527;45.618;5.130;2023-11-19T14:00:05;15.00;99.90
48728;DHT22;34527;45.618;5.130;2023-11-19T14:02:41;15.00;99.90
48728;DHT22;34527;45.618;5.130;2023-11-19T14:05:07;15.00;99.90
48728;DHT22;34527;45.618;5.130;2023-11-19T14:07:33;14.90;99.90
48728;DHT22;34527;45.618;5.130;2023-11-19T14:09:59;14.90;99.90
48728;DHT22;34527;45.618;5.130;2023-11-19T14:12:24;14.80;99.90
48728;DHT22;34527;45.618;5.130;2023-11-19T14:14:50;14.80;99.90
48728;DHT22;34527;45.618;5.130;2023-11-19T14:17:16;14.80;99.90
48728;DHT22;34527;45.618;5.130;2023-11-19T14:19:42;14.80;99.90
48728;DHT22;34527;45.618;5.130;2023-11-19T14:22:08;14.80;99.90
48728;DHT22;34527;45.618;5.130;2023-11-19T14:24:34;14.80;99.90
48728;DHT22;34527;45.618;5.130;2023-11-19T14:27:00;14.70;99.90
48728;DHT22;34527;45.618;5.130;2023-11-19T14:29:26;14.70;99.90
48728;DHT22;34527;45.618;5.130;2023-11-19T14:31:53;14.70;99.90
48728;DHT22;34527;45.618;5.130;2023-11-19T14:34:20;14.70;99.90
48728;DHT22;34527;45.618;5.130;2023-11-19T14:36:46;14.70;99.90
48728;DHT22;34527;45.618;5.130;2023-11-19T14:39:11;14.70;99.90
48728;DHT22;34527;45.618;5.130;2023-11-19T14:41:37;14.60;99.90
48728;DHT22;34527;45.618;5.130;2023-11-19T14:44:03;14.60;99.90
48728;DHT22;34527;45.618;5.130;2023-11-19T14:46:29;14.70;99.90
48728;DHT22;34527;45.618;5.130;2023-11-19T14:48:54;14.70;99.90
48728;DHT22;34527;45.618;5.130;2023-11-19T14:51:20;14.70;99.90
48728;DHT22;34527;45.618;5.130;2023-11-19T14:53:46;14.70;99.90
48728;DHT22;34527;45.618;5.130;2023-11-19T14:56:12;14.70;99.90
48728;DHT22;34527;45.618;5.130;2023-11-19T14:58:41;14.70;99.90
48728;DHT22;34527;45.618;5.130;2023-11-19T15:01:12;14.70;99.90
48728;DHT22;34527;45.618;5.130;2023-11-19T15:03:37;14.60;99.90
48728;DHT22;34527;45.618;5.130;2023-11-19T15:06:03;14.60;99.90
48728;DHT22;34527;45.618;5.130;2023-11-19T15:08:28;14.60;99.90
48728;DHT22;34527;45.618;5.130;2023-11-19T15:10:55;14.50;99.90
48728;DHT22;34527;45.618;5.130;2023-11-19T15:13:23;14.50;99.90
48728;DHT22;34527;45.618;5.130;2023-11-19T15:15:49;14.50;99.90
48728;DHT22;34527;45.618;5.130;2023-11-19T15:18:15;14.50;99.90
48728;DHT22;34527;45.618;5.130;2023-11-19T15:20:42;14.60;99.90
48728;DHT22;34527;45.618;5.130;2023-11-19T15:23:15;14.60;99.90
48728;DHT22;34527;45.618;5.130;2023-11-19T15:25:41;14.60;99.90
48728;DHT22;34527;45.618;5.130;2023-11-19T15:28:07;14.50;99.90
48728;DHT22;34527;45.618;5.130;2023-11-19T15:30:33;14.50;99.90
48728;DHT22;34527;45.618;5.130;2023-11-19T15:32:59;14.50;99.90
48728;DHT22;34527;45.618;5.130;2023-11-19T15:35:24;14.40;99.90
48728;DHT22;34527;45.618;5.130;2023-11-19T15:37:50;14.40;99.90
48728;DHT22;34527;45.618;5.130;2023-11-19T15:40:16;14.40;99.90
48728;DHT22;34527;45.618;5.130;2023-11-19T15:42:41;14.30;99.90
48728;DHT22;34527;45.618;5.130;2023-11-19T15:45:11;14.30;99.90
48728;DHT22;34527;45.618;5.130;2023-11-19T15:47:38;14.20;99.90
48728;DHT22;34527;45.618;5.130;2023-11-19T15:50:06;14.10;99.90
48728;DHT22;34527;45.618;5.130;2023-11-19T15:52:36;14.10;99.90
48728;DHT22;34527;45.618;5.130;2023-11-19T15:55:01;14.10;99.90
48728;DHT22;34527;45.618;5.130;2023-11-19T15:57:27;14.10;99.90
48728;DHT22;34527;45.618;5.130;2023-11-19T15:59:53;14.00;99.90
48728;DHT22;34527;45.618;5.130;2023-11-19T16:02:19;14.00;99.90